sensor_id;sensor_type;location;lat;lon;timestamp;pressure;altitude;pressure_sealevel;temperature;humidity
26915;BME280;14480;52.608;13.416;2022-12-07T10:18:01;139791.47;;;-17.28;100.00
26915;BME280;14480;52.608;13.416;2022-12-07T10:23:13;140814.59;;;-13.04;100.00
26915;BME280;14480;52.608;13.416;2022-12-07T10:28:18;140491.47;;;-14.38;100.00
26915;BME280;14480;52.608;13.416;2022-12-07T10:33:33;140481.66;;;-14.42;100.00
26915;BME280;14480;52.608;13.416;2022-12-07T10:38:44;140785.09;;;-13.16;100.00
26915;BME280;14480;52.608;13.416;2022-12-07T10:43:51;140563.94;;;-14.08;100.00
26915;BME280;14480;52.608;13.416;2022-12-07T10:49:08;140355.25;;;-14.94;100.00
26915;BME280;14480;52.608;13.416;2022-12-07T10:54:31;140799.81;;;-13.10;100.00
26915;BME280;14480;52.608;13.416;2022-12-07T10:59:53;140798.56;;;-13.11;100.00
26915;BME280;14480;52.608;13.416;2022-12-07T11:05:10;140787.53;;;-13.15;100.00
26915;BME280;14480;52.608;13.416;2022-12-07T11:10:25;140414.16;;;-14.70;100.00
26915;BME280;14480;52.608;13.416;2022-12-07T11:15:47;140774.03;;;-13.21;100.00
26915;BME280;14480;52.608;13.416;2022-12-07T11:21:03;140890.84;;;-12.73;100.00
26915;BME280;14480;52.608;13.416;2022-12-07T11:26:16;140702.78;;;-13.50;100.00
26915;BME280;14480;52.608;13.416;2022-12-07T11:31:29;140874.84;;;-12.79;100.00
26915;BME280;14480;52.608;13.416;2022-12-07T11:36:40;140821.94;;;-13.01;100.00
26915;BME280;14480;52.608;13.416;2022-12-07T11:41:47;140734.72;;;-13.37;100.00
26915;BME280;14480;52.608;13.416;2022-12-07T11:46:58;140578.66;;;-14.02;100.00
26915;BME280;14480;52.608;13.416;2022-12-07T11:52:16;140869.91;;;-12.81;100.00
26915;BME280;14480;52.608;13.416;2022-12-07T11:57:31;140850.22;;;-12.89;100.00
26915;BME280;14480;52.608;13.416;2022-12-07T12:02:47;140829.31;;;-12.98;100.00
26915;BME280;14480;52.608;13.416;2022-12-07T12:08:13;140410.47;;;-14.71;100.00
26915;BME280;14480;52.608;13.416;2022-12-07T12:14:03;140570.06;;;-14.05;100.00
26915;BME280;14480;52.608;13.416;2022-12-07T12:19:42;140451.00;;;-14.55;100.00
26915;BME280;14480;52.608;13.416;2022-12-07T12:24:53;140599.53;;;-13.93;100.00
26915;BME280;14480;52.608;13.416;2022-12-07T12:30:00;140679.41;;;-13.60;100.00
26915;BME280;14480;52.608;13.416;2022-12-07T12:35:44;140954.78;;;-12.46;100.00
26915;BME280;14480;52.608;13.416;2022-12-07T12:40:53;141000.28;;;-12.27;100.00
26915;BME280;14480;52.608;13.416;2022-12-07T12:51:38;140523.38;;;-14.25;100.00
26915;BME280;14480;52.608;13.416;2022-12-07T12:56:51;140636.38;;;-13.78;100.00
26915;BME280;14480;52.608;13.416;2022-12-07T13:02:15;140995.38;;;-12.29;100.00
26915;BME280;14480;52.608;13.416;2022-12-07T13:07:51;141023.66;;;-12.18;100.00
26915;BME280;14480;52.608;13.416;2022-12-07T13:13:02;141017.53;;;-12.20;100.00
26915;BME280;14480;52.608;13.416;2022-12-07T13:18:24;141000.28;;;-12.27;100.00
26915;BME280;14480;52.608;13.416;2022-12-07T13:23:30;140700.31;;;-13.51;100.00
26915;BME280;14480;52.608;13.416;2022-12-07T13:28:38;140625.34;;;-13.82;100.00
26915;BME280;14480;52.608;13.416;2022-12-07T13:33:46;140885.88;;;-12.75;100.00
26915;BME280;14480;52.608;13.416;2022-12-07T13:38:54;140581.09;;;-14.01;100.00
26915;BME280;14480;52.608;13.416;2022-12-07T13:44:10;140582.38;;;-14.00;100.00
26915;BME280;14480;52.608;13.416;2022-12-07T13:49:18;140651.16;;;-13.72;100.00
26915;BME280;14480;52.608;13.416;2022-12-07T13:54:23;140382.25;;;-14.83;100.00
26915;BME280;14480;52.608;13.416;2022-12-07T13:59:29;140867.47;;;-12.82;100.00
26915;BME280;14480;52.608;13.416;2022-12-07T14:04:37;140850.22;;;-12.89;100.00
26915;BME280;14480;52.608;13.416;2022-12-07T14:09:41;140842.88;;;-12.92;100.00
26915;BME280;14480;52.608;13.416;2022-12-07T14:14:48;140632.72;;;-13.79;100.00
26915;BME280;14480;52.608;13.416;2022-12-07T14:19:54;140619.22;;;-13.85;100.00
26915;BME280;14480;52.608;13.416;2022-12-07T14:25:09;140462.03;;;-14.50;100.00
26915;BME280;14480;52.608;13.416;2022-12-07T14:30:18;140442.44;;;-14.58;100.00
26915;BME280;14480;52.608;13.416;2022-12-07T14:35:23;140750.72;;;-13.31;100.00
26915;BME280;14480;52.608;13.416;2022-12-07T14:40:28;140836.72;;;-12.95;100.00
26915;BME280;14480;52.608;13.416;2022-12-07T14:45:35;140920.34;;;-12.60;100.00
26915;BME280;14480;52.608;13.416;2022-12-07T14:50:42;140742.09;;;-13.34;100.00
26915;BME280;14480;52.608;13.416;2022-12-07T14:56:07;140922.81;;;-12.59;100.00
26915;BME280;14480;52.608;13.416;2022-12-07T15:01:13;140928.94;;;-12.57;100.00
26915;BME280;14480;52.608;13.416;2022-12-07T15:06:23;140878.50;;;-12.78;100.00
26915;BME280;14480;52.608;13.416;2022-12-07T15:11:35;140404.34;;;-14.74;100.00
26915;BME280;14480;52.608;13.416;2022-12-07T15:16:47;140909.25;;;-12.65;100.00
26915;BME280;14480;52.608;13.416;2022-12-07T15:22:13;140877.28;;;-12.78;100.00
26915;BME280;14480;52.608;13.416;2022-12-07T15:27:17;140815.81;;;-13.04;100.00
26915;BME280;14480;52.608;13.416;2022-12-07T15:32:23;140533.22;;;-14.21;100.00
26915;BME280;14480;52.608;13.416;2022-12-07T15:37:42;140284.09;;;-15.24;100.00
26915;BME280;14480;52.608;13.416;2022-12-07T15:43:35;140577.41;;;-14.02;100.00
26915;BME280;14480;52.608;13.416;2022-12-07T15:48:59;140474.34;;;-14.45;100.00
26915;BME280;14480;52.608;13.416;2022-12-07T15:54:13;140781.41;;;-13.18;100.00
26915;BME280;14480;52.608;13.416;2022-12-07T15:59:20;140279.19;;;-15.26;100.00
26915;BME280;14480;52.608;13.416;2022-12-07T16:04:29;140474.34;;;-14.45;100.00
26915;BME280;14480;52.608;13.416;2022-12-07T16:09:37;139724.16;;;-17.56;100.00
26915;BME280;14480;52.608;13.416;2022-12-07T16:14:42;140282.88;;;-15.24;100.00
26915;BME280;14480;52.608;13.416;2022-12-07T16:19:48;139960.44;;;-16.58;100.00
26915;BME280;14480;52.608;13.416;2022-12-07T16:24:52;140347.88;;;-14.97;100.00
26915;BME280;14480;52.608;13.416;2022-12-07T16:29:59;139512.50;;;-18.44;100.00
26915;BME280;14480;52.608;13.416;2022-12-07T16:35:07;140446.09;;;-14.57;100.00
26915;BME280;14480;52.608;13.416;2022-12-07T16:40:12;139904.13;;;-16.82;100.00
26915;BME280;14480;52.608;13.416;2022-12-07T16:45:24;140469.41;;;-14.47;100.00
26915;BME280;14480;52.608;13.416;2022-12-07T16:50:34;140460.81;;;-14.51;100.00
26915;BME280;14480;52.608;13.416;2022-12-07T16:55:41;140439.94;;;-14.59;100.00
26915;BME280;14480;52.608;13.416;2022-12-07T17:00:47;140097.72;;;-16.01;100.00
26915;BME280;14480;52.608;13.416;2022-12-07T17:05:53;139942.09;;;-16.66;100.00
26915;BME280;14480;52.608;13.416;2022-12-07T17:10:57;140047.44;;;-16.22;100.00
26915;BME280;14480;52.608;13.416;2022-12-07T17:16:03;140388.41;;;-14.81;100.00
26915;BME280;14480;52.608;13.416;2022-12-07T17:21:10;140377.34;;;-14.85;100.00
26915;BME280;14480;52.608;13.416;2022-12-07T17:26:19;140336.88;;;-15.02;100.00
26915;BME280;14480;52.608;13.416;2022-12-07T17:31:30;139801.28;;;-17.24;100.00
26915;BME280;14480;52.608;13.416;2022-12-07T17:36:37;140057.28;;;-16.18;100.00
26915;BME280;14480;52.608;13.416;2022-12-07T17:41:41;140004.56;;;-16.40;100.00
26915;BME280;14480;52.608;13.416;2022-12-07T17:47:10;139719.25;;;-17.58;100.00
26915;BME280;14480;52.608;13.416;2022-12-07T17:52:19;140317.22;;;-15.10;100.00
26915;BME280;14480;52.608;13.416;2022-12-07T17:57:40;139890.69;;;-16.87;100.00
26915;BME280;14480;52.608;13.416;2022-12-07T18:02:45;140323.34;;;-15.08;100.00
26915;BME280;14480;52.608;13.416;2022-12-07T18:07:50;140301.25;;;-15.17;100.00
26915;BME280;14480;52.608;13.416;2022-12-07T18:12:57;139857.63;;;-17.01;100.00
26915;BME280;14480;52.608;13.416;2022-12-07T18:18:15;140079.34;;;-16.09;100.00
26915;BME280;14480;52.608;13.416;2022-12-07T18:23:21;139655.63;;;-17.85;100.00
26915;BME280;14480;52.608;13.416;2022-12-07T18:28:25;140231.34;;;-15.46;100.00
26915;BME280;14480;52.608;13.416;2022-12-07T18:33:33;139826.97;;;-17.14;100.00
26915;BME280;14480;52.608;13.416;2022-12-07T18:38:41;139904.13;;;-16.82;100.00
26915;BME280;14480;52.608;13.416;2022-12-07T18:43:46;139321.84;;;-19.24;100.00
26915;BME280;14480;52.608;13.416;2022-12-07T18:48:50;139915.19;;;-16.77;100.00
26915;BME280;14480;52.608;13.416;2022-12-07T18:53:56;140008.25;;;-16.38;100.00
26915;BME280;14480;52.608;13.416;2022-12-07T18:59:01;140157.78;;;-15.76;100.00
26915;BME280;14480;52.608;13.416;2022-12-07T19:04:22;139780.47;;;-17.33;100.00
26915;BME280;14480;52.608;13.416;2022-12-07T19:09:29;139834.34;;;-17.11;100.00
26915;BME280;14480;52.608;13.416;2022-12-07T19:14:36;140065.84;;;-16.14;100.00
26915;BME280;14480;52.608;13.416;2022-12-07T19:19:41;139951.88;;;-16.62;100.00
26915;BME280;14480;52.608;13.416;2022-12-07T19:24:51;140143.09;;;-15.82;100.00
26915;BME280;14480;52.608;13.416;2022-12-07T19:29:58;139871.06;;;-16.95;100.00
26915;BME280;14480;52.608;13.416;2022-12-07T19:35:02;139902.91;;;-16.82;100.00
26915;BME280;14480;52.608;13.416;2022-12-07T19:40:12;140130.81;;;-15.87;100.00
26915;BME280;14480;52.608;13.416;2022-12-07T19:45:16;140098.94;;;-16.01;100.00
26915;BME280;14480;52.608;13.416;2022-12-07T19:50:20;140081.81;;;-16.08;100.00
26915;BME280;14480;52.608;13.416;2022-12-07T19:55:25;140074.41;;;-16.11;100.00
26915;BME280;14480;52.608;13.416;2022-12-07T20:00:29;140064.63;;;-16.15;100.00
26915;BME280;14480;52.608;13.416;2022-12-07T20:05:35;140063.41;;;-16.15;100.00
26915;BME280;14480;52.608;13.416;2022-12-07T20:10:40;140097.72;;;-16.01;100.00
26915;BME280;14480;52.608;13.416;2022-12-07T20:15:44;139853.91;;;-17.02;100.00
26915;BME280;14480;52.608;13.416;2022-12-07T20:20:52;139677.69;;;-17.76;100.00
26915;BME280;14480;52.608;13.416;2022-12-07T20:26:04;140047.44;;;-16.22;100.00
26915;BME280;14480;52.608;13.416;2022-12-07T20:31:10;139683.78;;;-17.73;100.00
26915;BME280;14480;52.608;13.416;2022-12-07T20:36:16;140080.56;;;-16.08;100.00
26915;BME280;14480;52.608;13.416;2022-12-07T20:41:22;139907.81;;;-16.80;100.00
26915;BME280;14480;52.608;13.416;2022-12-07T20:46:45;139959.22;;;-16.59;100.00
26915;BME280;14480;52.608;13.416;2022-12-07T20:51:49;140037.66;;;-16.26;100.00
26915;BME280;14480;52.608;13.416;2022-12-07T20:56:55;139825.75;;;-17.14;100.00
26915;BME280;14480;52.608;13.416;2022-12-07T21:01:59;139822.06;;;-17.16;100.00
26915;BME280;14480;52.608;13.416;2022-12-07T21:07:06;140022.91;;;-16.32;100.00
26915;BME280;14480;52.608;13.416;2022-12-07T21:12:11;139833.13;;;-17.11;100.00
26915;BME280;14480;52.608;13.416;2022-12-07T21:17:16;139993.50;;;-16.44;100.00
26915;BME280;14480;52.608;13.416;2022-12-07T21:22:22;139981.28;;;-16.49;100.00
26915;BME280;14480;52.608;13.416;2022-12-07T21:27:28;139970.28;;;-16.54;100.00
26915;BME280;14480;52.608;13.416;2022-12-07T21:32:32;139970.28;;;-16.54;100.00
26915;BME280;14480;52.608;13.416;2022-12-07T21:37:37;139835.56;;;-17.10;100.00
26915;BME280;14480;52.608;13.416;2022-12-07T21:42:42;139960.44;;;-16.58;100.00
26915;BME280;14480;52.608;13.416;2022-12-07T21:47:46;139677.69;;;-17.76;100.00
26915;BME280;14480;52.608;13.416;2022-12-07T21:52:50;139924.97;;;-16.73;100.00
26915;BME280;14480;52.608;13.416;2022-12-07T21:57:59;140021.69;;;-16.33;100.00
26915;BME280;14480;52.608;13.416;2022-12-07T22:03:03;139923.75;;;-16.73;100.00
26915;BME280;14480;52.608;13.416;2022-12-07T22:08:07;140046.22;;;-16.23;100.00
26915;BME280;14480;52.608;13.416;2022-12-07T22:13:14;140047.44;;;-16.22;100.00
26915;BME280;14480;52.608;13.416;2022-12-07T22:18:18;139875.97;;;-16.93;100.00
26915;BME280;14480;52.608;13.416;2022-12-07T22:23:22;139950.66;;;-16.62;100.00
26915;BME280;14480;52.608;13.416;2022-12-07T22:28:30;140078.09;;;-16.09;100.00
26915;BME280;14480;52.608;13.416;2022-12-07T22:33:33;140107.53;;;-15.97;100.00
